Time;durP1;ratioP1;P1;durP2;ratioP2;P2;SDS_P1;SDS_P2;PMS_P1;PMS_P2;Temp;Humidity;BMP_temperature;BMP_pressure;BME280_temperature;BME280_humidity;BME280_pressure;Samples;Min_cycle;Max_cycle;Signal;HPM_P1;HPM_P2
2023/05/05 00:02:26;;;;;;;7.77;4.80;;;12.80;99.90;;;;;;5051246;28;20509;-68
2023/05/05 00:04:54;;;;;;;3.90;3.60;;;12.80;99.90;;;;;;5050734;28;20443;-69
2023/05/05 00:07:22;;;;;;;5.70;4.20;;;12.90;99.90;;;;;;5050115;28;20479;-69
2023/05/05 00:09:48;;;;;;;5.47;4.20;;;12.80;99.90;;;;;;5050566;28;20459;-69
2023/05/05 00:12:15;;;;;;;3.80;3.50;;;12.80;99.90;;;;;;5063418;28;20462;-69
2023/05/05 00:14:42;;;;;;;5.67;4.70;;;12.80;99.90;;;;;;5070408;28;20497;-69
2023/05/05 00:17:08;;;;;;;4.20;3.80;;;12.70;99.90;;;;;;5070348;28;20573;-69
2023/05/05 00:19:35;;;;;;;4.47;4.07;;;12.70;99.90;;;;;;5070516;28;20462;-69
2023/05/05 00:22:02;;;;;;;4.00;3.70;;;12.70;99.90;;;;;;5069962;28;20458;-68
2023/05/05 00:24:30;;;;;;;4.40;3.97;;;12.70;99.90;;;;;;5070096;28;20516;-68
2023/05/05 00:26:57;;;;;;;5.40;4.90;;;12.70;99.90;;;;;;5059878;28;20491;-69
2023/05/05 00:29:23;;;;;;;4.73;4.10;;;12.70;99.90;;;;;;5050280;28;20902;-68
2023/05/05 00:31:51;;;;;;;4.50;4.10;;;12.70;99.90;;;;;;5128946;22;20463;-95
2023/05/05 00:34:18;;;;;;;4.27;3.87;;;12.60;99.90;;;;;;5062174;28;20502;-94
2023/05/05 00:36:45;;;;;;;5.73;4.47;;;12.60;99.90;;;;;;5069130;28;20440;-94
2023/05/05 00:39:12;;;;;;;4.37;3.97;;;12.60;99.90;;;;;;5077272;28;20455;-95
2023/05/05 00:41:40;;;;;;;5.70;4.23;;;12.60;99.90;;;;;;5077511;28;20518;-93
2023/05/05 00:44:07;;;;;;;5.63;4.53;;;12.60;99.90;;;;;;5077287;28;20486;-94
2023/05/05 00:46:35;;;;;;;4.80;4.33;;;12.60;99.90;;;;;;5077199;28;20451;-94
2023/05/05 00:49:02;;;;;;;4.80;4.30;;;12.60;99.90;;;;;;5076918;28;20460;-94
2023/05/05 00:51:30;;;;;;;5.80;4.43;;;12.60;99.90;;;;;;5077172;28;20439;-94
2023/05/05 00:53:57;;;;;;;4.90;4.30;;;12.60;99.90;;;;;;5076782;28;20510;-95
2023/05/05 00:56:26;;;;;;;8.00;4.23;;;12.60;99.90;;;;;;5077152;28;20444;-94
2023/05/05 00:58:54;;;;;;;5.33;4.80;;;12.60;99.90;;;;;;5076754;28;20506;-93
2023/05/05 01:01:21;;;;;;;5.47;4.90;;;12.50;99.90;;;;;;5077113;28;20436;-95
2023/05/05 01:03:47;;;;;;;5.47;4.27;;;12.50;99.90;;;;;;5076861;28;20447;-94
2023/05/05 01:06:27;;;;;;;4.73;4.20;;;12.50;99.90;;;;;;5076857;28;20447;-93
2023/05/05 01:09:04;;;;;;;5.00;4.20;;;12.40;99.90;;;;;;5076658;28;20473;-95
2023/05/05 01:11:35;;;;;;;5.60;4.93;;;12.40;99.90;;;;;;5077204;28;20439;-93
2023/05/05 01:14:12;;;;;;;5.63;4.43;;;12.40;99.90;;;;;;5076750;28;20447;-94
2023/05/05 01:16:45;;;;;;;5.00;4.10;;;12.40;99.90;;;;;;5076955;28;20529;-95
2023/05/05 01:19:28;;;;;;;5.57;3.80;;;12.40;99.90;;;;;;5071412;28;20460;-94
2023/05/05 01:21:59;;;;;;;4.50;4.10;;;12.40;99.90;;;;;;5080831;28;20443;-95
2023/05/05 01:24:42;;;;;;;4.67;4.23;;;12.40;99.90;;;;;;5080925;28;20482;-94
2023/05/05 01:27:32;;;;;;;4.40;4.00;;;12.40;99.90;;;;;;5080595;28;20522;-94
2023/05/05 01:30:11;;;;;;;4.57;4.00;;;12.40;99.90;;;;;;5080547;28;20516;-94
2023/05/05 01:32:45;;;;;;;6.47;4.33;;;12.40;99.90;;;;;;5080526;28;20463;-94
2023/05/05 01:35:15;;;;;;;6.27;4.40;;;12.40;99.90;;;;;;5080564;28;20489;-93
2023/05/05 01:37:49;;;;;;;3.60;3.30;;;12.30;99.90;;;;;;5080883;28;20519;-95
2023/05/05 01:40:19;;;;;;;6.07;4.30;;;12.30;99.90;;;;;;5072619;28;20439;-94
2023/05/05 01:42:47;;;;;;;5.50;4.10;;;12.30;99.90;;;;;;5080603;28;20466;-94
2023/05/05 01:45:15;;;;;;;5.30;4.80;;;12.20;99.90;;;;;;5064208;28;20459;-93
2023/05/05 01:47:44;;;;;;;4.43;4.03;;;12.20;99.90;;;;;;5080361;28;20469;-94
2023/05/05 01:50:12;;;;;;;4.97;4.47;;;12.20;99.90;;;;;;5080218;28;20447;-95
2023/05/05 01:52:41;;;;;;;5.30;4.37;;;12.20;99.90;;;;;;5080399;28;20451;-94
2023/05/05 01:55:09;;;;;;;4.27;3.83;;;12.10;99.90;;;;;;5080270;28;20502;-93
2023/05/05 01:57:39;;;;;;;5.77;5.10;;;12.10;99.90;;;;;;5080456;28;20467;-93
2023/05/05 02:00:08;;;;;;;4.97;4.03;;;12.10;99.90;;;;;;5079937;28;20452;-94
2023/05/05 02:02:37;;;;;;;5.73;4.10;;;12.00;99.90;;;;;;5080190;28;20474;-94
2023/05/05 02:05:07;;;;;;;5.70;4.97;;;12.00;99.90;;;;;;5080102;28;20439;-93
2023/05/05 02:07:36;;;;;;;5.30;4.80;;;12.00;99.90;;;;;;5080152;28;20455;-94
2023/05/05 02:10:03;;;;;;;5.17;4.30;;;11.90;99.90;;;;;;5079985;28;20455;-95
2023/05/05 02:12:31;;;;;;;5.23;4.80;;;11.90;99.90;;;;;;5080181;28;20443;-94
2023/05/05 02:14:59;;;;;;;4.47;3.33;;;12.00;99.90;;;;;;5080071;28;20436;-94
2023/05/05 02:17:27;;;;;;;6.20;4.40;;;12.00;99.90;;;;;;5080009;28;20459;-94
2023/05/05 02:19:55;;;;;;;4.20;3.80;;;12.00;99.90;;;;;;5079630;28;20450;-94
2023/05/05 02:22:23;;;;;;;4.60;4.17;;;12.00;99.90;;;;;;5079612;28;20436;-92
2023/05/05 02:24:50;;;;;;;4.90;4.00;;;12.10;99.90;;;;;;5079977;28;20506;-94
2023/05/05 02:27:21;;;;;;;4.97;4.00;;;12.20;99.90;;;;;;5079692;28;20452;-94
2023/05/05 02:29:51;;;;;;;3.80;3.20;;;12.30;99.90;;;;;;5078866;28;20440;-93
2023/05/05 02:32:22;;;;;;;3.20;2.90;;;12.40;99.90;;;;;;5071619;28;20455;-95
2023/05/05 02:34:50;;;;;;;3.83;3.43;;;12.50;99.90;;;;;;5079867;28;20440;-94
2023/05/05 02:37:23;;;;;;;3.70;3.40;;;12.70;99.90;;;;;;5071333;28;20475;-94
2023/05/05 02:39:58;;;;;;;6.63;3.40;;;12.80;99.90;;;;;;5079671;28;20482;-94
2023/05/05 02:42:28;;;;;;;4.20;3.23;;;12.90;99.90;;;;;;5079528;28;20443;-95
2023/05/05 02:44:58;;;;;;;3.17;2.87;;;13.00;99.90;;;;;;5079622;28;20452;-94
2023/05/05 02:47:28;;;;;;;3.80;3.40;;;13.20;99.90;;;;;;5079317;28;20472;-94
2023/05/05 02:49:55;;;;;;;4.23;3.67;;;13.40;99.90;;;;;;5079561;28;20474;-94
2023/05/05 02:52:22;;;;;;;3.27;2.97;;;13.50;99.90;;;;;;5079914;28;20435;-94
2023/05/05 02:54:49;;;;;;;2.60;2.40;;;13.70;99.90;;;;;;5080101;28;20440;-96
2023/05/05 02:57:20;;;;;;;3.20;2.90;;;13.80;99.90;;;;;;5079841;28;20456;-95
2023/05/05 02:59:53;;;;;;;2.90;2.70;;;14.00;99.90;;;;;;5079630;28;20473;-95
2023/05/05 03:02:27;;;;;;;3.40;3.10;;;14.00;99.90;;;;;;5079894;28;20514;-95
2023/05/05 03:05:00;;;;;;;3.27;2.97;;;14.10;99.90;;;;;;5079725;28;20753;-95
2023/05/05 03:07:34;;;;;;;3.77;3.10;;;14.20;99.90;;;;;;5079568;28;20543;-94
2023/05/05 03:10:07;;;;;;;3.73;2.77;;;14.20;99.90;;;;;;5079617;28;20461;-95
2023/05/05 03:12:39;;;;;;;5.37;3.23;;;14.30;99.90;;;;;;5079601;28;20539;-93
2023/05/05 03:15:10;;;;;;;3.20;2.90;;;14.30;99.90;;;;;;5079457;28;20475;-94
2023/05/05 03:17:37;;;;;;;6.90;3.40;;;14.30;99.90;;;;;;5079427;28;20467;-95
2023/05/05 03:20:05;;;;;;;3.50;3.20;;;14.40;99.90;;;;;;5079320;28;20448;-95
2023/05/05 03:22:36;;;;;;;2.80;2.60;;;14.40;99.90;;;;;;5079097;28;20519;-94
2023/05/05 03:25:03;;;;;;;3.67;2.90;;;14.50;99.90;;;;;;5078956;28;20518;-94
2023/05/05 03:27:30;;;;;;;2.67;2.23;;;14.50;99.90;;;;;;5077761;22;20606;-68
2023/05/05 03:29:58;;;;;;;3.43;3.10;;;14.60;99.90;;;;;;5040905;28;20461;-68
2023/05/05 03:32:26;;;;;;;3.33;2.87;;;14.60;99.90;;;;;;5041640;28;20529;-69
2023/05/05 03:34:53;;;;;;;3.13;2.83;;;14.60;99.90;;;;;;5041437;28;20509;-69
2023/05/05 03:37:20;;;;;;;3.50;3.20;;;14.60;99.90;;;;;;5045312;28;20487;-69
2023/05/05 03:39:46;;;;;;;3.23;2.93;;;14.70;99.90;;;;;;5029160;28;20452;-68
2023/05/05 03:42:13;;;;;;;3.10;2.83;;;14.70;99.90;;;;;;5028651;28;20525;-68
2023/05/05 03:44:40;;;;;;;4.07;2.93;;;14.70;99.90;;;;;;5043107;28;20459;-68
2023/05/05 03:47:08;;;;;;;3.93;2.43;;;14.70;99.90;;;;;;5048191;28;21030;-68
2023/05/05 03:49:54;;;;;;;2.87;2.60;;;14.70;99.90;;;;;;5101293;22;20491;-92
2023/05/05 03:52:21;;;;;;;3.07;2.83;;;14.80;99.90;;;;;;5077722;28;20450;-92
2023/05/05 03:54:47;;;;;;;3.80;3.40;;;14.80;99.90;;;;;;5077856;28;20470;-93
2023/05/05 03:57:14;;;;;;;4.60;2.87;;;14.70;99.90;;;;;;5077799;28;20479;-92
2023/05/05 03:59:41;;;;;;;4.00;3.43;;;14.80;99.90;;;;;;5077819;28;20467;-91
2023/05/05 04:02:10;;;;;;;3.17;2.90;;;14.80;99.90;;;;;;5077561;28;20531;-93
2023/05/05 04:04:37;;;;;;;2.60;2.40;;;14.80;99.90;;;;;;5077423;28;20463;-92
2023/05/05 04:07:03;;;;;;;3.00;2.80;;;14.80;99.90;;;;;;5077192;28;20444;-92
2023/05/05 04:09:30;;;;;;;3.30;2.43;;;14.80;99.90;;;;;;5077661;28;20499;-92
2023/05/05 04:11:57;;;;;;;2.30;2.07;;;14.80;99.90;;;;;;5074461;28;20481;-93
2023/05/05 04:14:29;;;;;;;3.07;2.73;;;14.90;99.90;;;;;;5057513;28;20467;-92
2023/05/05 04:20:12;;;;;;;2.63;2.43;;;14.90;99.90;;;;;;5048669;28;20472;-68
2023/05/05 04:22:38;;;;;;;3.07;2.77;;;15.00;99.90;;;;;;5046637;28;20472;-68
2023/05/05 04:25:06;;;;;;;3.20;2.63;;;15.00;99.90;;;;;;5046529;28;20471;-68
2023/05/05 04:27:32;;;;;;;2.73;2.53;;;15.00;99.90;;;;;;5023824;28;20480;-68
2023/05/05 04:29:59;;;;;;;3.87;3.50;;;15.00;99.90;;;;;;5036930;28;20471;-68
2023/05/05 04:32:26;;;;;;;3.07;2.67;;;15.00;99.90;;;;;;5047110;28;20468;-68
2023/05/05 04:35:03;;;;;;;5.97;2.70;;;15.10;99.90;;;;;;5047553;28;20970;-68
2023/05/05 04:37:31;;;;;;;4.43;3.23;;;15.10;99.90;;;;;;5047577;28;20455;-67
2023/05/05 04:39:58;;;;;;;3.17;2.87;;;15.10;99.90;;;;;;5047526;28;20459;-68
2023/05/05 04:42:24;;;;;;;3.53;2.80;;;15.20;99.90;;;;;;5048685;28;20814;-68
2023/05/05 04:44:51;;;;;;;6.00;2.70;;;15.30;99.90;;;;;;5050341;28;20820;-68
2023/05/05 04:47:18;;;;;;;3.10;2.23;;;15.40;99.90;;;;;;5049696;28;20851;-68
2023/05/05 04:49:44;;;;;;;4.60;2.40;;;15.40;99.90;;;;;;5050128;28;20463;-69
2023/05/05 04:52:12;;;;;;;2.80;2.60;;;15.50;99.90;;;;;;5049360;28;20463;-68
2023/05/05 04:54:41;;;;;;;3.03;2.50;;;15.50;99.90;;;;;;5049516;28;20487;-68
2023/05/05 04:57:07;;;;;;;2.50;2.30;;;15.60;99.90;;;;;;5049451;28;20674;-68
2023/05/05 04:59:35;;;;;;;3.00;2.80;;;15.60;99.90;;;;;;5049489;28;20462;-68
2023/05/05 05:02:02;;;;;;;3.40;3.00;;;15.70;99.90;;;;;;5033456;28;20488;-68
2023/05/05 05:04:28;;;;;;;3.07;2.87;;;15.70;99.90;;;;;;5049755;28;20486;-68
2023/05/05 05:06:55;;;;;;;3.40;3.07;;;15.70;99.90;;;;;;5050212;28;20510;-68
2023/05/05 05:09:22;;;;;;;4.43;2.90;;;15.70;99.90;;;;;;5049492;28;21198;-68
2023/05/05 05:11:50;;;;;;;2.80;2.53;;;15.80;99.90;;;;;;5050317;28;20938;-68
2023/05/05 05:14:17;;;;;;;2.83;2.63;;;15.80;99.90;;;;;;5041416;28;20955;-68
2023/05/05 05:16:43;;;;;;;4.00;2.90;;;15.80;99.90;;;;;;5049765;28;21010;-68
2023/05/05 05:19:10;;;;;;;3.30;3.07;;;15.80;99.90;;;;;;5039838;28;20982;-68
2023/05/05 05:21:37;;;;;;;2.97;2.70;;;15.80;99.90;;;;;;5030045;28;20748;-68
2023/05/05 05:24:03;;;;;;;2.67;2.47;;;15.80;99.90;;;;;;5029438;28;20597;-68
2023/05/05 05:26:30;;;;;;;3.87;3.50;;;15.80;99.90;;;;;;5029814;28;20840;-68
2023/05/05 05:28:58;;;;;;;2.97;2.77;;;15.80;99.90;;;;;;5029680;28;20491;-68
2023/05/05 05:31:25;;;;;;;3.33;2.70;;;15.90;99.90;;;;;;5029366;28;20464;-68
2023/05/05 05:33:51;;;;;;;4.97;2.97;;;16.00;99.90;;;;;;5036579;28;20482;-68
2023/05/05 05:36:18;;;;;;;3.63;3.33;;;16.10;99.90;;;;;;5049189;28;20479;-68
2023/05/05 05:38:45;;;;;;;2.47;2.27;;;16.20;99.90;;;;;;5049742;28;20475;-68
2023/05/05 05:41:12;;;;;;;7.70;2.77;;;16.30;99.90;;;;;;5049351;28;20466;-68
2023/05/05 05:43:38;;;;;;;2.80;2.50;;;16.50;99.90;;;;;;5049492;28;20458;-70
2023/05/05 05:46:06;;;;;;;2.80;2.60;;;16.60;99.90;;;;;;5040673;28;20488;-68
2023/05/05 05:48:33;;;;;;;2.93;2.63;;;16.70;99.90;;;;;;5029316;28;20849;-69
2023/05/05 05:51:00;;;;;;;5.73;2.70;;;16.90;99.90;;;;;;5029475;28;20479;-68
2023/05/05 05:53:27;;;;;;;2.33;2.13;;;17.10;99.90;;;;;;5028893;28;20471;-69
2023/05/05 05:55:54;;;;;;;2.00;1.80;;;17.30;99.90;;;;;;5029610;28;20859;-68
2023/05/05 05:58:20;;;;;;;2.20;2.00;;;17.50;99.90;;;;;;5029023;28;20460;-69
2023/05/05 06:00:48;;;;;;;3.20;2.10;;;17.60;99.90;;;;;;5029510;28;20456;-69
2023/05/05 06:03:16;;;;;;;2.30;2.10;;;17.60;99.90;;;;;;5028903;28;20530;-69
2023/05/05 06:05:44;;;;;;;3.50;2.27;;;17.60;99.90;;;;;;5031374;28;20542;-69
2023/05/05 06:08:11;;;;;;;2.57;2.37;;;17.70;99.90;;;;;;5032615;28;20491;-69
2023/05/05 06:10:38;;;;;;;2.60;1.80;;;17.70;99.90;;;;;;5032894;28;20460;-68
2023/05/05 06:13:05;;;;;;;1.97;1.87;;;17.70;99.90;;;;;;5032789;28;20464;-68
2023/05/05 06:15:32;;;;;;;2.57;1.80;;;17.60;99.90;;;;;;5032109;28;20516;-69
2023/05/05 06:17:58;;;;;;;2.90;1.87;;;17.60;99.90;;;;;;5025220;28;20471;-68
2023/05/05 06:20:26;;;;;;;2.60;2.30;;;17.60;99.90;;;;;;5035355;28;20471;-68
2023/05/05 06:22:53;;;;;;;2.63;2.23;;;17.60;99.90;;;;;;5043451;28;20471;-68
2023/05/05 06:25:20;;;;;;;2.60;2.40;;;17.70;99.90;;;;;;5038484;28;20465;-69
2023/05/05 06:27:46;;;;;;;2.27;2.07;;;17.70;99.90;;;;;;5028004;28;20528;-68
2023/05/05 06:30:14;;;;;;;4.70;2.47;;;17.80;99.90;;;;;;5034612;28;20464;-69
2023/05/05 06:32:41;;;;;;;2.63;2.40;;;17.90;99.90;;;;;;5032495;28;20465;-68
2023/05/05 06:35:08;;;;;;;2.40;2.20;;;17.90;99.90;;;;;;5032394;28;20468;-69
2023/05/05 06:37:36;;;;;;;2.10;1.90;;;18.00;99.90;;;;;;5032380;28;20490;-68
2023/05/05 06:40:04;;;;;;;2.60;2.10;;;18.10;99.90;;;;;;5029575;28;20465;-69
2023/05/05 06:42:31;;;;;;;2.33;2.20;;;18.10;99.90;;;;;;5023315;28;20460;-69
2023/05/05 06:44:57;;;;;;;2.40;1.80;;;18.20;99.90;;;;;;5032455;28;20540;-69
2023/05/05 06:47:24;;;;;;;2.10;1.70;;;18.20;99.90;;;;;;5031984;28;20480;-69
2023/05/05 06:49:51;;;;;;;3.17;1.90;;;18.20;99.90;;;;;;5046605;28;20483;-69
2023/05/05 06:52:18;;;;;;;2.40;2.20;;;18.20;99.90;;;;;;5051925;28;20463;-70
2023/05/05 06:54:46;;;;;;;1.93;1.77;;;18.20;99.90;;;;;;5051932;28;20808;-69
2023/05/05 06:57:12;;;;;;;4.07;2.47;;;18.30;99.90;;;;;;5051760;28;20490;-69
2023/05/05 06:59:39;;;;;;;2.07;1.90;;;18.30;99.90;;;;;;5051771;28;20463;-69
2023/05/05 07:02:06;;;;;;;1.97;1.80;;;18.40;99.90;;;;;;5052002;28;20466;-68
2023/05/05 07:04:33;;;;;;;3.30;1.90;;;18.40;99.90;;;;;;5023648;28;20952;-69
2023/05/05 07:07:00;;;;;;;1.93;1.83;;;18.40;99.90;;;;;;5032524;28;20851;-69
2023/05/05 07:09:26;;;;;;;2.33;2.00;;;18.50;99.90;;;;;;5050714;28;20484;-69
2023/05/05 07:11:54;;;;;;;2.37;2.00;;;18.50;99.90;;;;;;5045753;28;20861;-68
2023/05/05 07:14:21;;;;;;;2.30;2.10;;;18.50;99.90;;;;;;5031253;28;20851;-69
2023/05/05 07:16:48;;;;;;;3.47;2.40;;;18.50;99.90;;;;;;5031412;28;21017;-68
2023/05/05 07:19:14;;;;;;;4.07;2.40;;;18.50;99.90;;;;;;5031261;28;20994;-68
2023/05/05 07:21:41;;;;;;;2.77;2.13;;;18.60;99.90;;;;;;5025233;28;20464;-68
2023/05/05 07:24:08;;;;;;;2.97;2.40;;;18.70;99.90;;;;;;5019297;28;20746;-68
2023/05/05 07:26:35;;;;;;;2.43;2.10;;;18.70;99.90;;;;;;5018810;28;20501;-70
2023/05/05 07:29:05;;;;;;;2.50;2.20;;;18.60;99.90;;;;;;5029388;28;20495;-69
2023/05/05 07:31:32;;;;;;;2.03;1.93;;;18.60;99.90;;;;;;5030631;28;20723;-69
2023/05/05 07:33:59;;;;;;;2.00;1.90;;;18.60;99.90;;;;;;5030443;28;20470;-69
2023/05/05 07:36:27;;;;;;;3.10;1.90;;;18.50;99.90;;;;;;5030209;28;20483;-69
2023/05/05 07:38:54;;;;;;;2.00;1.80;;;18.50;99.90;;;;;;5030655;28;20518;-69
2023/05/05 07:41:21;;;;;;;3.20;1.77;;;18.50;99.90;;;;;;5029513;28;20514;-70
2023/05/05 07:43:48;;;;;;;2.40;2.20;;;18.40;99.90;;;;;;5030423;28;20496;-69
2023/05/05 07:46:17;;;;;;;3.97;2.30;;;18.30;99.90;;;;;;5030018;28;20484;-69
2023/05/05 07:48:44;;;;;;;2.47;1.87;;;18.20;99.90;;;;;;5025565;28;20473;-70
2023/05/05 07:51:11;;;;;;;2.40;2.20;;;18.10;99.90;;;;;;5026942;28;20464;-69
2023/05/05 07:53:38;;;;;;;2.20;2.00;;;18.00;99.90;;;;;;5025844;28;20964;-69
2023/05/05 07:56:06;;;;;;;2.43;2.13;;;17.90;99.90;;;;;;5018695;28;20489;-69
2023/05/05 07:58:33;;;;;;;2.63;2.40;;;17.80;99.90;;;;;;5029309;28;21011;-69
2023/05/05 08:01:01;;;;;;;2.37;2.00;;;17.60;99.90;;;;;;5030515;28;20555;-69
2023/05/05 08:03:29;;;;;;;2.10;1.90;;;17.60;99.90;;;;;;5029133;28;21029;-69
2023/05/05 08:05:56;;;;;;;2.50;2.30;;;17.50;99.90;;;;;;5030139;28;20571;-69
2023/05/05 08:08:23;;;;;;;3.40;2.70;;;17.40;99.90;;;;;;5029631;28;20801;-69
2023/05/05 08:10:50;;;;;;;2.40;2.20;;;17.40;99.90;;;;;;5030269;28;20866;-70
2023/05/05 08:13:17;;;;;;;2.80;2.50;;;17.40;99.90;;;;;;5029489;28;20500;-70
2023/05/05 08:15:44;;;;;;;4.10;2.37;;;17.40;99.90;;;;;;5030040;28;20492;-69
2023/05/05 08:18:11;;;;;;;2.50;2.30;;;17.40;99.90;;;;;;5029357;28;20468;-70
2023/05/05 08:20:39;;;;;;;2.97;2.43;;;17.50;99.90;;;;;;5022146;28;20460;-69
2023/05/05 08:23:08;;;;;;;2.40;1.97;;;17.40;99.90;;;;;;5029645;28;20464;-69
2023/05/05 08:25:35;;;;;;;3.87;2.40;;;17.40;99.90;;;;;;5015859;28;20983;-69
2023/05/05 08:28:02;;;;;;;4.83;2.40;;;17.40;99.90;;;;;;5029377;28;20468;-69
2023/05/05 08:30:29;;;;;;;2.83;2.50;;;17.40;99.90;;;;;;5028586;28;20488;-69
2023/05/05 08:32:56;;;;;;;2.63;2.40;;;17.30;99.90;;;;;;5027785;28;20967;-70
2023/05/05 08:35:22;;;;;;;2.50;2.30;;;17.20;99.90;;;;;;5029237;28;20468;-69
2023/05/05 08:37:51;;;;;;;3.50;2.20;;;17.10;99.90;;;;;;5029889;28;20475;-69
2023/05/05 08:40:20;;;;;;;2.10;1.90;;;17.10;99.90;;;;;;5029180;28;20464;-69
2023/05/05 08:42:47;;;;;;;2.43;2.23;;;17.10;99.90;;;;;;5028870;28;20468;-69
2023/05/05 08:45:14;;;;;;;2.43;2.20;;;17.10;99.90;;;;;;5029319;28;20476;-69
2023/05/05 08:47:41;;;;;;;3.40;2.87;;;17.20;99.90;;;;;;5029499;28;20563;-70
2023/05/05 08:50:10;;;;;;;2.17;1.97;;;17.30;99.90;;;;;;5029224;28;20885;-69
2023/05/05 08:52:40;;;;;;;2.57;2.20;;;17.30;99.90;;;;;;5028679;28;20472;-69
2023/05/05 08:55:15;;;;;;;2.87;2.40;;;17.20;99.90;;;;;;5028092;28;20471;-70
2023/05/05 08:57:48;;;;;;;2.60;2.40;;;17.20;99.90;;;;;;5021680;28;20471;-69
2023/05/05 09:00:19;;;;;;;2.67;2.23;;;17.10;99.90;;;;;;5029212;28;20460;-69
2023/05/05 09:02:47;;;;;;;2.57;2.37;;;17.20;99.90;;;;;;5029045;28;20460;-70
2023/05/05 09:05:14;;;;;;;2.90;2.67;;;17.30;99.90;;;;;;5029637;28;20460;-69
2023/05/05 09:07:42;;;;;;;3.13;2.60;;;17.30;99.90;;;;;;5028877;28;20980;-69
2023/05/05 09:10:12;;;;;;;2.77;2.57;;;17.50;99.90;;;;;;5027885;28;20487;-69
2023/05/05 09:12:40;;;;;;;3.23;2.90;;;17.50;99.90;;;;;;5028930;28;21010;-69
2023/05/05 09:15:08;;;;;;;4.07;2.57;;;17.70;99.90;;;;;;5029878;28;20525;-69
2023/05/05 09:17:34;;;;;;;3.07;2.50;;;17.90;99.90;;;;;;5029534;28;20460;-69
2023/05/05 09:20:04;;;;;;;2.60;2.33;;;18.10;99.90;;;;;;5028958;28;20522;-69
2023/05/05 09:22:38;;;;;;;3.57;2.87;;;18.40;99.90;;;;;;5029142;28;21026;-70
2023/05/05 09:25:06;;;;;;;2.70;2.50;;;18.70;99.90;;;;;;5029751;28;20456;-69
2023/05/05 09:27:37;;;;;;;2.70;2.50;;;18.80;99.90;;;;;;5029629;28;20534;-69
2023/05/05 09:30:05;;;;;;;3.50;2.83;;;18.70;99.90;;;;;;5049302;28;20866;-69
2023/05/05 09:32:43;;;;;;;3.60;2.37;;;18.70;99.90;;;;;;5046679;28;20463;-69
2023/05/05 09:35:10;;;;;;;3.30;3.00;;;18.70;99.90;;;;;;5033559;28;20474;-69
2023/05/05 09:37:37;;;;;;;2.40;2.20;;;18.90;99.90;;;;;;5029128;28;20472;-69
2023/05/05 09:40:05;;;;;;;2.80;2.60;;;19.10;99.90;;;;;;5031841;28;20875;-69
2023/05/05 09:42:32;;;;;;;2.73;2.53;;;19.60;99.90;;;;;;5030111;28;20852;-69
2023/05/05 09:45:00;;;;;;;3.20;2.53;;;20.00;99.90;;;;;;5033454;28;20460;-69
2023/05/05 09:47:34;;;;;;;4.20;2.53;;;20.30;99.90;;;;;;5032891;28;20472;-70
2023/05/05 09:50:01;;;;;;;5.33;2.50;;;20.60;99.90;;;;;;5032987;28;20857;-69
2023/05/05 09:52:29;;;;;;;2.37;2.00;;;21.00;99.90;;;;;;5032427;28;20464;-69
2023/05/05 09:54:56;;;;;;;3.37;2.27;;;21.50;99.90;;;;;;5032372;28;20530;-70
2023/05/05 09:57:27;;;;;;;1.47;1.37;;;21.80;99.90;;;;;;5025417;28;20921;-70
2023/05/05 09:59:58;;;;;;;2.70;2.17;;;22.20;99.90;;;;;;5038592;28;20983;-70
2023/05/05 10:02:33;;;;;;;2.33;1.60;;;22.50;99.90;;;;;;5032083;28;20455;-70
2023/05/05 10:05:08;;;;;;;2.97;1.43;;;22.80;99.90;;;;;;5047076;28;20639;-69
2023/05/05 10:07:35;;;;;;;2.30;1.50;;;23.00;99.90;;;;;;5051855;28;20463;-69
2023/05/05 10:10:03;;;;;;;2.13;1.80;;;23.20;99.90;;;;;;5038402;28;20487;-69
2023/05/05 10:12:30;;;;;;;2.10;2.00;;;23.00;99.90;;;;;;5051228;28;20466;-70
2023/05/05 10:14:59;;;;;;;4.23;2.00;;;22.60;99.90;;;;;;5052945;28;20456;-70
2023/05/05 10:17:29;;;;;;;2.03;1.83;;;22.50;99.90;;;;;;5052213;28;20512;-70
2023/05/05 10:19:59;;;;;;;1.77;1.60;;;22.20;99.90;;;;;;5051860;28;20983;-70
2023/05/05 10:22:28;;;;;;;1.80;1.40;;;22.00;99.90;;;;;;5052002;28;20463;-70
2023/05/05 10:25:00;;;;;;;1.87;1.70;;;22.00;99.90;;;;;;5052467;28;20466;-70
2023/05/05 10:27:29;;;;;;;1.80;1.57;;;21.90;99.90;;;;;;5052330;28;20897;-70
2023/05/05 10:30:03;;;;;;;2.23;1.90;;;21.70;99.90;;;;;;5052137;28;20479;-69
2023/05/05 10:32:36;;;;;;;2.00;1.70;;;21.70;99.90;;;;;;5051195;28;20466;-70
2023/05/05 10:35:07;;;;;;;1.97;1.70;;;21.70;99.90;;;;;;5052419;28;20460;-69
2023/05/05 10:37:37;;;;;;;1.63;1.53;;;21.50;99.90;;;;;;5052326;28;21023;-69
2023/05/05 10:40:05;;;;;;;2.80;1.60;;;21.30;99.90;;;;;;5051571;28;20581;-69
2023/05/05 10:42:32;;;;;;;2.90;1.80;;;21.10;99.90;;;;;;5051657;28;20460;-70
2023/05/05 10:44:58;;;;;;;1.60;1.50;;;20.90;99.90;;;;;;5046590;28;20930;-69
2023/05/05 10:53:07;;;;;;;2.33;1.60;;;20.50;99.90;;;;;;5084799;28;20466;-91
2023/05/05 10:55:47;;;;;;;1.50;1.40;;;20.40;99.90;;;;;;5088689;28;20497;-91
2023/05/05 10:58:32;;;;;;;1.93;1.83;;;20.30;99.90;;;;;;5083301;28;20475;-91
2023/05/05 11:00:59;;;;;;;2.10;1.90;;;20.20;99.90;;;;;;5080400;28;20670;-91
2023/05/05 11:03:29;;;;;;;1.60;1.50;;;20.20;99.90;;;;;;5087195;28;20471;-91
2023/05/05 11:06:40;;;;;;;2.80;2.17;;;20.10;99.90;;;;;;5084700;28;20505;-93
2023/05/05 11:09:28;;;;;;;1.63;1.30;;;20.10;99.90;;;;;;5090392;28;20455;-90
2023/05/05 11:12:14;;;;;;;1.93;1.73;;;20.10;99.90;;;;;;5086126;28;20447;-92
2023/05/05 11:14:41;;;;;;;4.47;1.80;;;20.20;99.90;;;;;;5096122;22;20489;-69
2023/05/05 11:17:47;;;;;;;2.20;1.80;;;20.40;99.90;;;;;;5036953;28;20585;-68
2023/05/05 11:20:14;;;;;;;1.77;1.67;;;20.60;99.90;;;;;;5031924;28;20456;-68
2023/05/05 11:23:20;;;;;;;1.80;1.70;;;21.00;99.90;;;;;;5050920;28;20521;-68
2023/05/05 11:25:47;;;;;;;2.60;1.97;;;21.60;99.90;;;;;;5031737;28;20507;-67
2023/05/05 11:28:15;;;;;;;2.60;1.93;;;22.20;99.90;;;;;;5047138;28;20518;-67
2023/05/05 11:31:15;;;;;;;1.90;1.40;;;22.60;99.90;;;;;;5051068;28;20556;-67
2023/05/05 11:33:43;;;;;;;2.00;1.60;;;23.30;99.90;;;;;;5051126;28;20456;-67
2023/05/05 11:36:11;;;;;;;2.27;1.83;;;23.80;99.90;;;;;;5045051;28;20899;-67
2023/05/05 11:39:07;;;;;;;3.00;2.20;;;24.20;99.90;;;;;;5039812;28;20471;-67
2023/05/05 11:42:00;;;;;;;1.90;1.60;;;24.60;99.90;;;;;;5040031;28;20456;-67
2023/05/05 11:44:31;;;;;;;3.10;1.93;;;24.70;99.90;;;;;;5048736;28;20457;-68
2023/05/05 11:47:27;;;;;;;2.37;1.87;;;25.10;99.90;;;;;;5038749;28;20518;-68
2023/05/05 11:49:55;;;;;;;2.63;1.70;;;25.60;99.90;;;;;;5035362;28;20566;-68
2023/05/05 11:52:28;;;;;;;3.23;1.60;;;26.20;99.90;;;;;;5033623;28;20470;-68
2023/05/05 11:55:00;;;;;;;2.23;1.80;;;26.10;99.90;;;;;;5035333;28;20481;-68
2023/05/05 11:57:29;;;;;;;2.03;1.80;;;25.80;99.90;;;;;;5036195;28;20498;-68
2023/05/05 11:59:58;;;;;;;1.60;1.50;;;25.60;99.90;;;;;;5043671;28;20463;-68
2023/05/05 12:02:27;;;;;;;2.77;2.10;;;25.50;99.90;;;;;;5050901;28;20475;-67
2023/05/05 12:04:56;;;;;;;1.90;1.57;;;25.50;99.90;;;;;;5046778;28;20543;-68
2023/05/05 12:07:25;;;;;;;2.50;1.63;;;25.50;99.90;;;;;;5047319;28;20492;-68
2023/05/05 12:09:52;;;;;;;2.40;2.00;;;25.20;99.90;;;;;;5045626;28;20480;-67
2023/05/05 12:12:19;;;;;;;1.60;1.50;;;25.10;99.90;;;;;;5046353;28;20457;-67
2023/05/05 12:14:50;;;;;;;2.47;1.77;;;24.80;99.90;;;;;;5038906;28;20557;-67
2023/05/05 12:17:18;;;;;;;2.60;2.33;;;24.60;99.90;;;;;;5045634;28;21018;-69
2023/05/05 12:19:50;;;;;;;1.83;1.73;;;24.40;99.90;;;;;;5049878;28;20459;-68
2023/05/05 12:22:22;;;;;;;2.60;2.40;;;24.20;99.90;;;;;;5050123;28;20490;-69
2023/05/05 12:24:56;;;;;;;2.53;1.43;;;23.90;99.90;;;;;;5049684;28;20490;-69
2023/05/05 12:27:23;;;;;;;1.77;1.63;;;23.60;99.90;;;;;;5050857;28;20491;-69
2023/05/05 12:29:51;;;;;;;2.13;1.93;;;23.50;99.90;;;;;;5049278;28;20468;-69
2023/05/05 12:32:22;;;;;;;1.57;1.47;;;23.10;99.90;;;;;;5050742;28;20482;-68
2023/05/05 12:34:52;;;;;;;2.20;2.00;;;22.90;99.90;;;;;;5050474;28;20829;-68
2023/05/05 12:37:21;;;;;;;4.17;1.90;;;22.70;99.90;;;;;;5043947;28;20549;-68
2023/05/05 12:39:48;;;;;;;4.63;1.90;;;22.50;99.90;;;;;;5038677;28;20827;-69
2023/05/05 12:42:14;;;;;;;2.73;1.83;;;22.30;99.90;;;;;;5039360;28;20463;-68
2023/05/05 12:44:43;;;;;;;2.30;1.90;;;22.20;99.90;;;;;;5048664;28;20491;-68
2023/05/05 12:47:10;;;;;;;2.43;2.00;;;22.20;99.90;;;;;;5050581;28;20486;-68
2023/05/05 12:49:50;;;;;;;2.20;2.00;;;22.50;99.90;;;;;;5042268;28;20468;-68
2023/05/05 12:52:18;;;;;;;1.60;1.50;;;22.70;99.90;;;;;;5043580;28;20458;-68
2023/05/05 12:54:57;;;;;;;1.90;1.70;;;23.20;99.90;;;;;;5049108;28;20473;-68
2023/05/05 12:57:24;;;;;;;2.07;1.73;;;23.60;99.90;;;;;;5050363;28;20483;-68
2023/05/05 12:59:52;;;;;;;1.83;1.73;;;24.00;99.90;;;;;;5041745;28;20460;-69
2023/05/05 13:02:19;;;;;;;1.93;1.73;;;24.30;99.90;;;;;;5050490;28;20555;-68
2023/05/05 13:04:53;;;;;;;1.90;1.80;;;24.80;99.90;;;;;;5049786;28;20845;-69
2023/05/05 13:07:21;;;;;;;2.00;1.80;;;25.30;99.90;;;;;;5050294;28;20482;-69
2023/05/05 13:09:49;;;;;;;4.53;2.30;;;25.40;99.90;;;;;;5041591;28;20952;-69